»·PEaware :: SWA1524 KAMA-KELP

SWA1524 :: KAMA-KELP

FLIGHT INFORMATION

Flight Status: Arrived
Operator:
Southwest Airlines
More flights by this operator :: More flights under this callsign
Pilot: Matteo S. (9898)
Aircraft: BOEING 737-800
(B738)
More flights by this aircraft type
Origin: KAMA Amarillo Intl
United States
Destination: KELP El Paso Intl
United States
More flights between these airports :: More routes between these airports
Route: +PNH V280 CME SAMMR3
File this flight plan on PilotEdge
Remarks:
Altitude:
(Current/Filed)
32,000ft
Speed:
(Current/Filed)
460kts
Departed: 06-Sep-17 02:35 PM
Arrived: 06-Sep-17 03:27 PM
Distance/Time
Traveled:
311nm/0:52
Distance/Time
To Go:
Arrived

Flight Plot

Page will automatically refresh every two minutes.

Flight plan parsing failed; only flown route is shown


Map Options




Map Legend


Flown Route
Filed Route
Departure Airport
Arrival Airport
Navaid (VOR, NDB)
Fix

Horizontal Profiles

Position Reports

Time Latitude Longitude Heading Altitude Ground
Speed
06-Sep-17 14:14 35.217486 -101.709983 135 3615ft 0kts
06-Sep-17 14:15 35.217486 -101.709983 135 3615ft 0kts
06-Sep-17 14:16 35.217486 -101.709983 135 3615ft 0kts
06-Sep-17 14:17 35.217486 -101.709983 135 3615ft 0kts
06-Sep-17 14:18 35.217486 -101.709983 135 3615ft 0kts
06-Sep-17 14:19 35.217486 -101.709983 135 3615ft 0kts
06-Sep-17 14:20 35.217486 -101.709983 135 3615ft 0kts
06-Sep-17 14:21 35.217486 -101.709983 135 3615ft 0kts
06-Sep-17 14:22 35.217486 -101.709983 135 3615ft 0kts
06-Sep-17 14:23 35.217486 -101.709983 135 3615ft 0kts
06-Sep-17 14:24 35.217486 -101.709983 135 3615ft 0kts
06-Sep-17 14:25 35.217486 -101.709983 135 3615ft 0kts
06-Sep-17 14:26 35.217486 -101.709983 135 3615ft 0kts
06-Sep-17 14:27 35.217486 -101.709983 135 3615ft 0kts
06-Sep-17 14:28 35.217486 -101.709983 135 3615ft 0kts
06-Sep-17 14:29 35.217569 -101.710085 130 3615ft 2kts
06-Sep-17 14:30 35.217610 -101.710995 58 3615ft 2kts
06-Sep-17 14:31 35.217507 -101.711156 46 3615ft 0kts
06-Sep-17 14:32 35.217507 -101.711156 46 3615ft 0kts
06-Sep-17 14:33 35.218960 -101.710684 343 3615ft 10kts
06-Sep-17 14:34 35.221438 -101.708400 47 3615ft 13kts
06-Sep-17 14:35 35.224367 -101.704644 46 3615ft 16kts
06-Sep-17 14:36 35.227761 -101.700328 45 3615ft 18kts
06-Sep-17 14:37 35.229615 -101.699193 318 3615ft 6kts
06-Sep-17 14:38 35.230088 -101.701206 225 3615ft 14kts
06-Sep-17 14:39 35.206949 -101.728919 222 4566ft 177kts
06-Sep-17 14:40 35.167414 -101.778564 226 6756ft 233kts
06-Sep-17 14:41 35.116064 -101.844141 226 9056ft 285kts
06-Sep-17 14:42 35.057069 -101.916307 225 11382ft 331kts
06-Sep-17 14:43 34.994173 -102.005333 236 13475ft 370kts
06-Sep-17 14:44 34.932324 -102.109573 236 16054ft 389kts
06-Sep-17 14:45 34.867225 -102.218898 235 18429ft 406kts
06-Sep-17 14:46 34.800067 -102.331611 235 20677ft 417kts
06-Sep-17 14:47 34.730821 -102.447851 235 22682ft 429kts
06-Sep-17 14:48 34.660078 -102.566202 235 24451ft 439kts
06-Sep-17 14:49 34.587346 -102.687117 234 26056ft 448kts
06-Sep-17 14:50 34.512195 -102.810339 231 27533ft 458kts
06-Sep-17 14:51 34.416566 -102.914306 218 28893ft 468kts
06-Sep-17 14:52 34.314387 -103.009923 218 30756ft 462kts
06-Sep-17 14:53 34.212745 -103.104970 218 32269ft 462kts
06-Sep-17 14:54 34.111299 -103.199706 218 32299ft 459kts
06-Sep-17 14:55 34.009960 -103.294153 218 32294ft 459kts
06-Sep-17 14:56 33.908542 -103.388226 217 32274ft 461kts
06-Sep-17 14:57 33.815193 -103.492427 236 32267ft 460kts
06-Sep-17 14:58 33.755838 -103.628649 243 32263ft 459kts
06-Sep-17 14:59 33.698998 -103.765706 243 32258ft 459kts
06-Sep-17 15:00 33.641736 -103.902421 243 32251ft 459kts
06-Sep-17 15:01 33.584318 -104.039581 243 32243ft 459kts
06-Sep-17 15:02 33.526735 -104.176159 243 32234ft 460kts
06-Sep-17 15:03 33.468680 -104.313117 243 32226ft 460kts
06-Sep-17 15:04 33.410809 -104.449647 242 32224ft 460kts
06-Sep-17 15:05 33.351679 -104.585301 236 32220ft 460kts
06-Sep-17 15:06 33.257806 -104.687912 214 32225ft 459kts
06-Sep-17 15:07 33.152492 -104.774143 214 32232ft 460kts
06-Sep-17 15:08 33.047220 -104.860638 214 32238ft 460kts
06-Sep-17 15:09 32.941659 -104.947719 214 31153ft 461kts
06-Sep-17 15:10 32.836022 -105.034282 213 29058ft 458kts
06-Sep-17 15:11 32.732575 -105.118667 213 26958ft 444kts
06-Sep-17 15:12 32.629058 -105.195247 209 24852ft 431kts
06-Sep-17 15:13 32.527313 -105.267129 209 23535ft 425kts
06-Sep-17 15:14 32.427318 -105.338117 209 21496ft 411kts
06-Sep-17 15:15 32.330771 -105.406725 208 19497ft 399kts
06-Sep-17 15:16 32.237093 -105.472944 208 17497ft 388kts
06-Sep-17 15:17 32.145621 -105.538433 213 15544ft 379kts
06-Sep-17 15:18 32.065710 -105.616314 218 13801ft 366kts
06-Sep-17 15:19 31.990508 -105.690836 221 13023ft 343kts
06-Sep-17 15:20 31.935340 -105.783178 238 11364ft 346kts
06-Sep-17 15:21 31.886285 -105.879507 238 9694ft 333kts
06-Sep-17 15:22 31.869896 -105.978010 266 8873ft 294kts
06-Sep-17 15:23 31.866969 -106.070200 266 8054ft 264kts
06-Sep-17 15:24 31.865276 -106.152435 267 8006ft 246kts
06-Sep-17 15:25 31.864799 -106.234042 267 7993ft 249kts
06-Sep-17 15:26 31.864291 -106.316131 267 7630ft 254kts
06-Sep-17 15:27 31.863910 -106.395879 268 6933ft 229kts
06-Sep-17 15:28 31.844649 -106.454841 198 5928ft 183kts
06-Sep-17 15:29 31.798473 -106.455030 139 5939ft 163kts
06-Sep-17 15:30 31.803269 -106.406281 93 4226ft 149kts
06-Sep-17 15:31 31.801276 -106.373656 92 3966ft 33kts
06-Sep-17 15:32 31.799759 -106.370809 197 3966ft 11kts
06-Sep-17 15:33 31.799668 -106.375915 271 3966ft 25kts
06-Sep-17 15:34 31.800014 -106.384825 274 3966ft 25kts
06-Sep-17 15:35 31.800284 -106.390682 273 3966ft 7kts
06-Sep-17 15:36 31.800111 -106.393073 261 3966ft 0kts
06-Sep-17 15:37 31.800104 -106.393137 261 3966ft 0kts
06-Sep-17 15:38 31.800104 -106.393137 261 3966ft 0kts

Navigation Log

Ident Type
Flight plan parsing failed, navigation log unavailable